Flight Track Log - Related Links

Times and Time Zones

All times are in EDT time to prevent confusion due to time zone crossing. See the N845AE flight status page for this flight to view local times or setup timezone preferences in your user account.

Time Position Orientation Groundspeed Altitude Reporting Facility
EDT Latitude Longitude Course Direction KTS MPH feet Rate Location/Type
Thu 01:55:00 PM 35.1602 -85.3691 313° West  Level FlightAware Approximate
Thu 01:55:32 PM 34.9981 -85.2975 312° West 236 272 5,900  Level Memphis Center
Thu 01:56:00 PM 35.2258 -85.4510 313° West  Level FlightAware Approximate
Thu 01:56:32 PM 35.0506 -85.3578 317° Northwest 247 284 7,700  Level Memphis Center
Thu 01:57:00 PM 35.2892 -85.5356 313° West  Level FlightAware Approximate
Thu 01:57:32 PM 35.1072 -85.4203 318° Northwest 257 296 9,900  Level Memphis Center
Thu 01:58:00 PM 35.3538 -85.6191 314° West  Level FlightAware Approximate
Thu 01:58:32 PM 35.1642 -85.4881 316° Northwest 273 314 11,400  Level Memphis Center
Thu 01:59:00 PM 35.4217 -85.7069 312° West  Level FlightAware Approximate
Thu 01:59:32 PM 35.2256 -85.5633 315° West 299 344 13,000  Level Memphis Center
Thu 02:00:00 PM 35.4875 -85.7972 312° West  Level FlightAware Approximate
Thu 02:00:32 PM 35.2892 -85.6436 314° West 317 365 14,600  Level Memphis Center
Thu 02:01:32 PM 35.3544 -85.7186 317° Northwest 323 372 16,100 1,450 Climbing Memphis Center
Thu 02:02:32 PM 35.4181 -85.8019 313° West 323 372 17,500 1,450 Climbing Memphis Center
Thu 02:03:32 PM 35.4856 -85.8822 316° Northwest 328 377 19,000 1,450 Climbing Memphis Center
Thu 02:04:32 PM 35.5533 -85.9653 315° West 333 383 20,400 1,350 Climbing Memphis Center
Thu 02:05:32 PM 35.6228 -86.0458 317° Northwest 333 383 21,700 1,150 Climbing Memphis Center
Thu 02:06:32 PM 35.6925 -86.1344 314° West 341 392 22,700 767 Climbing Memphis Center
Thu 02:08:32 PM 35.8317 -86.3064 315° West 370 426 24,000 433 Climbing Memphis Center
Thu 02:09:32 PM 35.9100 -86.4025 315° West 383 441 24,000 100 Level Memphis Center
Thu 02:10:32 PM 35.9836 -86.4939 315° West 378 435 24,200 800 Climbing Memphis Center
Thu 02:11:32 PM 36.0575 -86.5853 315° West 378 435 25,600 1,400 Climbing Memphis Center
Thu 02:12:32 PM 36.1228 -86.6775 311° West 372 428 27,000 1,400 Climbing Memphis Center
Thu 02:13:32 PM 36.1389 -86.8078 279° West 339 390 28,400 1,400 Climbing Memphis Center
Thu 02:14:32 PM 36.1383 -86.9286 270° West 347 399 29,800 1,300 Climbing Memphis Center
Thu 02:15:32 PM 36.1372 -87.0469 269° West 347 399 31,000 1,100 Climbing Memphis Center
Thu 02:16:32 PM 36.1403 -87.1650 272° West 347 399 32,000 500 Climbing Memphis Center
Thu 02:17:32 PM 36.1414 -87.2883 271° West 347 399 32,000  Level Memphis Center
Thu 02:18:32 PM 36.1444 -87.4142 272° West 368 423 32,000  Level Memphis Center
Thu 02:19:32 PM 36.1431 -87.5325 269° West 373 429 32,000 350 Level Memphis Center
Thu 02:20:32 PM 36.1439 -87.6633 270° West 380 437 32,700 500 Climbing Memphis Center
Thu 02:21:32 PM 36.1089 -87.7878 251° West 379 436 33,000 150 Climbing Memphis Center
Thu 02:22:32 PM 36.0719 -87.9097 249° West 384 442 33,000 200 Level Memphis Center
Thu 02:23:32 PM 36.0344 -88.0289 249° West 384 442 33,400 500 Climbing Memphis Center
Thu 02:24:32 PM 36.0031 -88.1325 249° West 376 433 34,000 300 Climbing Memphis Center
Thu 02:25:32 PM 35.9656 -88.2539 249° West 369 425 34,000  Level Memphis Center
Thu 02:26:32 PM 35.9278 -88.3728 249° West 369 425 34,000  Level Memphis Center
Thu 02:27:32 PM 35.8922 -88.4917 250° West 374 430 34,000  Level Memphis Center
Thu 02:28:32 PM 35.8522 -88.6128 248° West 374 430 34,000  Level Memphis Center
Thu 02:29:32 PM 35.8142 -88.7339 249° West 374 430 34,000  Level Memphis Center
Thu 02:30:32 PM 35.7742 -88.8550 248° West 379 436 34,000  Level Memphis Center
Thu 02:31:32 PM 35.7358 -88.9758 249° West 384 442 34,000  Level Memphis Center
Thu 02:32:32 PM 35.6975 -89.0994 249° West 384 442 34,000  Level Memphis Center
Thu 02:33:32 PM 35.6592 -89.2353 251° West 389 448 34,000  Level Memphis Center
Thu 02:34:32 PM 35.6206 -89.3558 249° West 389 448 34,000  Level Memphis Center
Thu 02:35:32 PM 35.5842 -89.4764 250° West 389 448 34,000  Level Memphis Center
Thu 02:36:32 PM 35.5453 -89.5967 248° West 383 441 34,000  Level Memphis Center
Thu 02:37:32 PM 35.5083 -89.7169 249° West 377 434 34,000  Level Memphis Center
Thu 02:38:32 PM 35.4692 -89.8319 247° West 377 434 34,000  Level Memphis Center
Thu 02:39:32 PM 35.4322 -89.9519 249° West 377 434 34,000  Level Memphis Center
Thu 02:40:32 PM 35.3931 -90.0717 248° West 377 434 34,000  Level Memphis Center
Thu 02:41:32 PM 35.3536 -90.1892 248° West 372 428 34,000  Level Memphis Center
Thu 02:42:32 PM 35.3139 -90.3114 248° West 378 435 34,000  Level Memphis Center
Thu 02:43:32 PM 35.2744 -90.4308 248° West 378 435 34,000  Level Memphis Center
Thu 02:44:32 PM 35.2389 -90.5400 248° West 378 435 34,000  Level Memphis Center
Thu 02:45:32 PM 35.1989 -90.6594 248° West 378 435 34,000  Level Memphis Center
Thu 02:46:32 PM 35.1589 -90.7786 248° West 378 435 34,000  Level Memphis Center
Thu 02:47:32 PM 35.1167 -90.9003 247° West 378 435 34,000  Level Memphis Center
Thu 02:48:32 PM 35.0786 -91.0219 249° West 383 441 34,000  Level Memphis Center
Thu 02:49:32 PM 35.0361 -91.1433 247° West 388 447 34,000  Level Memphis Center
Thu 02:50:32 PM 34.9936 -91.2644 247° West 393 452 34,000  Level Memphis Center
Thu 02:51:32 PM 34.9489 -91.3983 248° West 393 452 34,000  Level Memphis Center
Thu 02:52:32 PM 34.9125 -91.5042 247° West 386 444 34,000  Level Memphis Center
Thu 02:53:32 PM 34.8631 -91.6428 247° West 398 458 34,000  Level Memphis Center
Thu 02:54:32 PM 34.8264 -91.7486 247° West 398 458 34,000  Level Memphis Center
Thu 02:55:32 PM 34.7856 -91.8717 248° West 390 449 34,000  Level Memphis Center
Thu 02:56:32 PM 34.7442 -91.9922 247° West 395 455 34,000  Level Memphis Center
Thu 02:57:32 PM 34.7008 -92.1128 246° West 395 455 34,000  Level Memphis Center
Thu 02:58:32 PM 34.6594 -92.2431 249° West 390 449 34,000  Level Memphis Center
Thu 02:59:32 PM 34.6303 -92.3661 254° West 383 441 34,000  Level Memphis Center
Thu 03:00:33 PM 34.5969 -92.4917 252° West 383 441 34,000  Level Memphis Center
Thu 03:01:32 PM 34.5614 -92.6169 251° West 383 441 34,000  Level Memphis Center
Thu 03:02:32 PM 34.5297 -92.7444 253° West 393 452 34,000  Level Memphis Center
Thu 03:03:32 PM 34.4939 -92.8744 252° West 400 460 34,000  Level Memphis Center
Thu 03:04:32 PM 34.4578 -93.0019 251° West 406 467 34,000  Level Memphis Center
Thu 03:05:32 PM 34.4236 -93.1369 253° West 406 467 34,000  Level Memphis Center
Thu 03:06:32 PM 34.3872 -93.2667 251° West 413 475 34,000  Level Memphis Center
Thu 03:07:32 PM 34.3506 -93.4011 252° West 419 482 34,000  Level Memphis Center
Thu 03:07:53 PM 34.3403 -93.4472 255° West 414 476 34,000  Level Fort Worth Center
Thu 03:08:53 PM 34.3067 -93.5794 253° West 404 465 34,000  Level Fort Worth Center
Thu 03:09:53 PM 34.2711 -93.7092 252° West 410 472 34,000  Level Fort Worth Center
Thu 03:10:53 PM 34.2353 -93.8389 252° West 410 472 34,000  Level Fort Worth Center
Thu 03:11:53 PM 34.1992 -93.9658 251° West 410 472 34,000  Level Fort Worth Center
Thu 03:12:53 PM 34.1650 -94.0928 252° West 410 472 34,000  Level Fort Worth Center
Thu 03:13:53 PM 34.1286 -94.2169 251° West 405 466 34,000  Level Fort Worth Center
Thu 03:14:53 PM 34.0919 -94.3414 250° West 405 466 34,000  Level Fort Worth Center
Thu 03:15:53 PM 34.0575 -94.4653 251° West 405 466 34,000  Level Fort Worth Center
Thu 03:16:53 PM 34.0228 -94.5919 252° West 400 460 34,000 -300 Level Fort Worth Center
Thu 03:17:53 PM 34.0153 -94.7225 266° West 400 460 33,400 -900 Descending Fort Worth Center
Thu 03:18:53 PM 34.0764 -94.8533 299° West 401 461 32,200 -1,250 Descending Fort Worth Center
Thu 03:19:53 PM 34.1331 -94.9747 299° West 413 475 30,900 -1,250 Descending Fort Worth Center
Thu 03:20:53 PM 34.1772 -95.1014 293° West 416 479 29,700 -1,200 Descending Fort Worth Center
Thu 03:21:53 PM 34.1378 -95.2406 251° West 395 455 28,500 -1,200 Descending Fort Worth Center
Thu 03:22:53 PM 34.0731 -95.3550 236° Southwest 395 455 27,300 -1,261 Descending Fort Worth Center
Thu 03:23:52 PM 33.9997 -95.4694 232° Southwest 416 479 26,000 -1,250 Descending Fort Worth Center
Thu 03:24:53 PM 33.9325 -95.5836 235° Southwest 422 486 24,800 -1,240 Descending Fort Worth Center
Thu 03:25:53 PM 33.8694 -95.6875 234° Southwest 416 479 23,500 -1,361 Descending Fort Worth Center
Thu 03:26:52 PM 33.8000 -95.8014 234° Southwest 416 479 22,100 -1,700 Descending Fort Worth Center
Thu 03:27:53 PM 33.7344 -95.9097 234° Southwest 416 479 20,100 -2,033 Descending Fort Worth Center
Thu 03:28:53 PM 33.6669 -96.0208 234° Southwest 416 479 18,000 -2,000 Descending Fort Worth Center
Thu 03:29:53 PM 33.6094 -96.1164 234° Southwest 411 473 16,100 -1,900 Descending Fort Worth Center
Thu 03:30:53 PM 33.5397 -96.2322 234° Southwest 401 461 14,200 -1,650 Descending Fort Worth Center
Thu 03:31:53 PM 33.4778 -96.3078 226° Southwest 373 429 12,800 -1,100 Descending Fort Worth Center
Thu 03:32:53 PM 33.4014 -96.3983 225° Southwest 355 409 12,000 -400 Descending Fort Worth Center
Thu 03:33:53 PM 33.3414 -96.4711 225° Southwest 349 402 12,000  Level Fort Worth Center
Thu 03:34:53 PM 33.2647 -96.5614 225° Southwest 349 402 12,000  Level Fort Worth Center
Thu 03:35:52 PM 33.2025 -96.6339 224° Southwest 337 388 12,000  Level Fort Worth Center
Thu 03:36:53 PM 33.1444 -96.7039 225° Southwest 327 376 12,000  Level Fort Worth Center
Thu 03:37:26 PM 33.1000 -96.7500 221° Southwest 326 375 12,000  Level Dallas / Fort Worth TRACON
Thu 03:38:26 PM 33.0333 -96.8333 226° Southwest 326 375 12,000  Level Dallas / Fort Worth TRACON
Thu 03:39:26 PM 32.9667 -96.9000 220° Southwest 272 313 12,000 -700 Level Dallas / Fort Worth TRACON
Thu 03:40:26 PM 32.9000 -96.9000 180° South 271 312 10,600 -1,300 Descending Dallas / Fort Worth TRACON
Thu 03:41:26 PM 32.8333 -96.9000 180° South 259 298 9,400 -1,238 Descending Dallas / Fort Worth TRACON
Thu 03:42:32 PM 32.7500 -96.9000 180° South 248 285 8,000 -1,333 Descending Dallas / Fort Worth TRACON
Thu 03:43:32 PM 32.6833 -96.9000 180° South 242 278 6,600 -1,263 Descending Dallas / Fort Worth TRACON
Thu 03:44:26 PM 32.6333 -96.9333 209° Southwest 233 268 5,600 -1,200 Descending Dallas / Fort Worth TRACON
Thu 03:45:32 PM 32.6333 -97.0000 270° West 215 247 4,200 -762 Descending Dallas / Fort Worth TRACON
Thu 03:46:32 PM 32.7000 -97.0167 348° North 180 207 4,000 -200 Descending Dallas / Fort Worth TRACON

Login

Don't have an account? Register now (free) for customized features, flight alerts, and more!